createdAt,value
2018-07-12T00:00:37.357Z,15.10
2018-07-12T00:03:04.897Z,15.10
2018-07-12T00:05:32.603Z,15.10
2018-07-12T00:08:00.471Z,15.20
2018-07-12T00:10:28.456Z,15.20
2018-07-12T00:12:56.547Z,15.10
2018-07-12T00:15:24.110Z,15.10
2018-07-12T00:17:51.686Z,15.10
2018-07-12T00:20:20.902Z,15.20
2018-07-12T00:22:49.248Z,15.10
2018-07-12T00:25:16.846Z,15.00
2018-07-12T00:27:44.517Z,15.10
2018-07-12T00:30:13.231Z,15.10
2018-07-12T00:32:40.827Z,15.00
2018-07-12T00:35:09.093Z,15.00
2018-07-12T00:37:37.744Z,15.00
2018-07-12T00:40:05.512Z,15.00
2018-07-12T00:42:35.785Z,14.90
2018-07-12T00:45:03.326Z,14.80
2018-07-12T00:47:30.907Z,14.80
2018-07-12T00:49:58.445Z,14.80
2018-07-12T00:52:26.101Z,14.90
2018-07-12T00:54:53.624Z,15.00
2018-07-12T00:57:21.162Z,15.00
2018-07-12T00:59:49.434Z,15.00
2018-07-12T01:02:17.019Z,14.90
2018-07-12T01:04:44.546Z,14.80
2018-07-12T01:07:12.439Z,15.00
2018-07-12T01:09:40.237Z,14.90
2018-07-12T01:12:08.154Z,14.80
2018-07-12T01:14:35.695Z,14.90
2018-07-12T01:17:04.000Z,14.90
2018-07-12T01:19:31.837Z,14.90
2018-07-12T01:21:59.399Z,14.80
2018-07-12T01:24:26.913Z,14.90
2018-07-12T01:26:55.905Z,14.80
2018-07-12T01:29:23.654Z,14.40
2018-07-12T01:31:51.194Z,14.30
2018-07-12T01:34:19.085Z,14.30
2018-07-12T01:36:46.634Z,14.30
2018-07-12T01:39:14.150Z,14.30
2018-07-12T01:41:42.399Z,14.30
2018-07-12T01:44:10.584Z,14.50
2018-07-12T01:46:38.404Z,14.50
2018-07-12T01:49:05.953Z,14.70
2018-07-12T01:51:34.802Z,14.90
2018-07-12T01:54:02.583Z,15.00
2018-07-12T01:56:30.122Z,15.00
2018-07-12T01:58:58.155Z,15.00
2018-07-12T02:01:25.691Z,15.00
2018-07-12T02:03:54.202Z,15.00
2018-07-12T02:06:21.840Z,14.90
2018-07-12T02:08:49.538Z,14.90
2018-07-12T02:11:17.997Z,15.00
2018-07-12T02:13:46.738Z,14.90
2018-07-12T02:16:14.248Z,14.90
2018-07-12T02:18:42.081Z,14.90
2018-07-12T02:21:10.489Z,14.90
2018-07-12T02:23:39.068Z,14.80
2018-07-12T02:26:06.614Z,14.80
2018-07-12T02:28:34.170Z,14.90
2018-07-12T02:31:01.707Z,14.90
2018-07-12T02:33:29.248Z,14.90
2018-07-12T02:35:56.766Z,14.80
2018-07-12T02:38:25.016Z,14.70
2018-07-12T02:40:52.599Z,14.70
2018-07-12T02:43:20.143Z,14.70
2018-07-12T02:45:47.714Z,14.70
2018-07-12T02:48:16.255Z,14.60
2018-07-12T02:50:43.944Z,14.60
2018-07-12T02:53:11.598Z,14.60
2018-07-12T02:55:39.252Z,14.60
2018-07-12T02:58:07.014Z,14.50
2018-07-12T03:00:34.562Z,14.50
2018-07-12T03:03:02.122Z,14.50
2018-07-12T03:05:30.554Z,14.50
2018-07-12T03:07:58.125Z,14.50
2018-07-12T03:10:25.662Z,14.60
2018-07-12T03:12:53.210Z,14.50
2018-07-12T03:15:22.611Z,14.50
2018-07-12T03:17:50.186Z,14.40
2018-07-12T03:20:18.007Z,14.30
2018-07-12T03:22:45.845Z,14.30
2018-07-12T03:25:13.382Z,14.40
2018-07-12T03:27:40.922Z,14.40
2018-07-12T03:30:08.504Z,14.50
2018-07-12T03:32:36.026Z,14.40
2018-07-12T03:35:03.571Z,14.40
2018-07-12T03:37:31.142Z,14.60
2018-07-12T03:39:58.701Z,14.40
2018-07-12T03:42:26.684Z,14.50
2018-07-12T03:44:54.391Z,14.40
2018-07-12T03:47:21.914Z,14.40
2018-07-12T03:49:49.465Z,14.50
2018-07-12T03:52:17.472Z,14.50
2018-07-12T03:54:45.006Z,14.30
2018-07-12T03:57:12.551Z,14.10
2018-07-12T03:59:40.102Z,14.10
2018-07-12T04:02:07.657Z,14.30
2018-07-12T04:04:35.195Z,14.40
2018-07-12T04:07:02.713Z,14.40
2018-07-12T04:09:30.266Z,14.30
2018-07-12T04:11:57.802Z,14.10
2018-07-12T04:14:25.369Z,13.90
2018-07-12T04:16:52.894Z,13.90
2018-07-12T04:19:20.458Z,14.10
2018-07-12T04:21:49.119Z,14.20
2018-07-12T04:24:16.678Z,14.30
2018-07-12T04:26:44.197Z,14.40
2018-07-12T04:29:11.745Z,14.40
2018-07-12T04:31:40.078Z,14.50
2018-07-12T04:34:07.605Z,14.60
2018-07-12T04:36:38.186Z,14.60
2018-07-12T04:39:06.202Z,14.60
2018-07-12T04:41:34.030Z,14.70
2018-07-12T04:44:01.636Z,14.70
2018-07-12T04:46:29.220Z,14.90
2018-07-12T04:48:56.757Z,14.90
2018-07-12T04:51:24.295Z,14.80
2018-07-12T04:53:51.870Z,14.90
2018-07-12T04:56:19.399Z,14.90
2018-07-12T04:58:46.945Z,14.90
2018-07-12T05:01:14.513Z,14.80
2018-07-12T05:03:42.057Z,14.80
2018-07-12T05:06:10.355Z,14.90
2018-07-12T05:08:37.901Z,14.80
2018-07-12T05:11:05.486Z,15.10
2018-07-12T05:13:33.046Z,15.20
2018-07-12T05:16:00.594Z,15.20
2018-07-12T05:18:28.122Z,15.30
2018-07-12T05:20:55.659Z,15.50
2018-07-12T05:23:23.194Z,15.70
2018-07-12T05:25:50.727Z,15.80
2018-07-12T05:28:18.274Z,16.10
2018-07-12T05:30:45.894Z,16.20
2018-07-12T05:33:13.394Z,16.30
2018-07-12T05:35:42.414Z,16.30
2018-07-12T05:38:12.190Z,16.20
2018-07-12T05:40:41.313Z,16.20
2018-07-12T05:43:10.335Z,16.50
2018-07-12T05:45:39.344Z,16.50
2018-07-12T05:48:08.393Z,16.70
2018-07-12T05:50:37.602Z,16.90
2018-07-12T05:53:06.711Z,17.00
2018-07-12T05:55:35.750Z,17.20
2018-07-12T05:58:04.902Z,17.30
2018-07-12T06:00:33.939Z,17.40
2018-07-12T06:03:02.951Z,17.40
2018-07-12T06:05:31.941Z,17.50
2018-07-12T06:08:00.978Z,17.70
2018-07-12T06:10:29.988Z,17.80
2018-07-12T06:12:58.979Z,17.70
2018-07-12T06:15:28.019Z,17.80
2018-07-12T06:17:57.037Z,17.90
2018-07-12T06:20:26.072Z,18.00
2018-07-12T06:22:55.101Z,18.10
2018-07-12T06:25:24.182Z,18.00
2018-07-12T06:27:53.186Z,18.00
2018-07-12T06:30:22.233Z,18.10
2018-07-12T06:32:51.263Z,18.20
2018-07-12T06:35:20.274Z,18.30
2018-07-12T06:37:49.321Z,18.30
2018-07-12T06:40:18.293Z,18.50
2018-07-12T06:42:47.412Z,18.60
2018-07-12T06:45:16.438Z,18.50
2018-07-12T06:47:45.565Z,18.60
2018-07-12T06:50:14.573Z,18.80
2018-07-12T06:52:43.605Z,18.90
2018-07-12T06:55:12.614Z,19.00
2018-07-12T06:57:41.628Z,19.00
2018-07-12T07:00:10.638Z,18.90
2018-07-12T07:02:39.643Z,19.00
2018-07-12T07:05:08.854Z,18.80
2018-07-12T07:07:37.885Z,18.60
2018-07-12T07:10:06.899Z,18.80
2018-07-12T07:12:35.914Z,18.90
2018-07-12T07:15:05.007Z,19.00
2018-07-12T07:17:34.024Z,19.00
2018-07-12T07:20:03.076Z,19.10
2018-07-12T07:22:32.049Z,19.30
2018-07-12T07:25:01.058Z,19.40
2018-07-12T07:27:30.075Z,19.50
2018-07-12T07:29:59.069Z,19.50
2018-07-12T07:32:28.128Z,19.40
2018-07-12T07:34:57.177Z,19.30
2018-07-12T07:37:26.179Z,19.20
2018-07-12T07:39:55.262Z,19.30
2018-07-12T07:42:24.317Z,19.30
2018-07-12T07:44:53.327Z,19.60
2018-07-12T07:47:22.326Z,19.60
2018-07-12T07:49:51.318Z,19.60
2018-07-12T07:52:20.326Z,19.50
2018-07-12T07:54:49.324Z,19.70
2018-07-12T07:57:18.326Z,19.90
2018-07-12T07:59:47.357Z,20.10
2018-07-12T08:02:16.370Z,20.10
2018-07-12T08:04:45.398Z,20.10
2018-07-12T08:07:14.580Z,20.10
2018-07-12T08:09:43.594Z,19.90
2018-07-12T08:12:12.795Z,20.00
2018-07-12T08:14:41.872Z,19.80
2018-07-12T08:17:10.923Z,20.00
2018-07-12T08:19:40.193Z,20.10
2018-07-12T08:22:10.544Z,20.10
2018-07-12T08:24:40.972Z,20.20
2018-07-12T08:27:10.779Z,20.20
2018-07-12T08:29:40.800Z,20.30
2018-07-12T08:32:09.859Z,20.00
2018-07-12T08:34:39.230Z,20.00
2018-07-12T08:37:09.537Z,19.80
2018-07-12T08:39:39.634Z,20.10
2018-07-12T08:42:08.634Z,20.50
2018-07-12T08:44:37.646Z,20.30
2018-07-12T08:47:08.190Z,20.40
2018-07-12T08:49:39.026Z,20.30
2018-07-12T08:52:08.018Z,20.30
2018-07-12T08:54:37.023Z,20.30
2018-07-12T08:57:06.414Z,20.00
2018-07-12T08:59:37.428Z,20.40
2018-07-12T09:02:06.434Z,20.60
2018-07-12T09:04:35.431Z,21.00
2018-07-12T09:07:04.545Z,21.20
2018-07-12T09:09:33.538Z,20.70
2018-07-12T09:12:02.521Z,20.60
2018-07-12T09:14:31.623Z,20.20
2018-07-12T09:17:01.038Z,20.40
2018-07-12T09:19:31.786Z,20.80
2018-07-12T09:22:00.930Z,20.70
2018-07-12T09:24:29.923Z,20.70
2018-07-12T09:26:59.174Z,21.10
2018-07-12T09:29:28.664Z,21.30
2018-07-12T09:31:57.704Z,21.50
2018-07-12T09:34:26.736Z,21.80
2018-07-12T09:36:55.788Z,22.50
2018-07-12T09:39:25.136Z,21.80
2018-07-12T09:41:54.153Z,21.00
2018-07-12T09:44:23.477Z,21.40
2018-07-12T09:46:52.487Z,21.60
2018-07-12T09:49:21.671Z,21.70
2018-07-12T09:51:51.909Z,22.20
2018-07-12T09:54:20.922Z,22.20
2018-07-12T09:57:07.846Z,22.70
2018-07-12T09:59:36.969Z,22.70
2018-07-12T10:02:11.330Z,21.90
2018-07-12T10:04:40.346Z,21.80
2018-07-12T10:07:14.602Z,21.70
2018-07-12T10:09:48.791Z,21.40
2018-07-12T10:12:22.970Z,21.10
2018-07-12T10:14:56.177Z,21.60
2018-07-12T10:17:30.594Z,21.30
2018-07-12T10:20:00.025Z,21.10
2018-07-12T10:22:28.990Z,20.90
2018-07-12T10:24:58.006Z,20.80
2018-07-12T10:27:27.382Z,20.70
2018-07-12T10:29:56.571Z,20.70
2018-07-12T10:32:25.592Z,20.90
2018-07-12T10:34:54.658Z,20.60
2018-07-12T10:37:23.663Z,21.40
2018-07-12T10:39:52.666Z,21.80
2018-07-12T10:42:21.690Z,21.10
2018-07-12T10:44:50.836Z,20.80
2018-07-12T10:47:19.969Z,20.60
2018-07-12T10:49:48.974Z,21.10
2018-07-12T10:52:18.392Z,21.20
2018-07-12T10:54:47.637Z,21.10
2018-07-12T10:57:16.671Z,21.10
2018-07-12T10:59:45.702Z,21.60
2018-07-12T11:02:14.770Z,22.10
2018-07-12T11:04:44.047Z,22.50
2018-07-12T11:07:13.182Z,21.90
2018-07-12T11:09:42.209Z,21.60
2018-07-12T11:12:11.232Z,21.60
2018-07-12T11:14:40.351Z,21.10
2018-07-12T11:17:09.416Z,21.00
2018-07-12T11:19:38.524Z,21.10
2018-07-12T11:22:07.638Z,21.00
2018-07-12T11:24:36.635Z,20.90
2018-07-12T11:27:05.659Z,20.90
2018-07-12T11:29:56.771Z,22.30
2018-07-12T11:32:25.790Z,23.30
2018-07-12T11:34:54.875Z,23.40
2018-07-12T11:37:25.674Z,22.90
2018-07-12T11:39:55.365Z,21.70
2018-07-12T11:42:24.443Z,21.60
2018-07-12T11:44:53.457Z,22.70
2018-07-12T11:47:22.460Z,23.40
2018-07-12T11:49:51.530Z,24.40
2018-07-12T11:52:20.695Z,24.60
2018-07-12T11:54:50.826Z,24.40
2018-07-12T11:57:19.846Z,24.70
2018-07-12T11:59:48.890Z,24.80
2018-07-12T12:02:17.923Z,24.90
2018-07-12T12:04:46.935Z,25.40
2018-07-12T12:07:16.024Z,25.80
2018-07-12T12:09:45.047Z,25.80
2018-07-12T12:12:17.172Z,26.10
2018-07-12T12:14:46.370Z,26.20
2018-07-12T12:17:15.638Z,25.80
2018-07-12T12:19:44.666Z,25.60
2018-07-12T12:22:13.703Z,25.60
2018-07-12T12:24:42.712Z,26.20
2018-07-12T12:27:12.422Z,25.50
2018-07-12T12:29:41.441Z,25.00
2018-07-12T12:32:10.466Z,24.90
2018-07-12T12:34:39.542Z,25.40
2018-07-12T12:37:08.602Z,26.40
2018-07-12T12:39:37.638Z,25.90
2018-07-12T12:42:07.018Z,24.00
2018-07-12T12:44:36.102Z,23.10
2018-07-12T12:47:05.133Z,22.80
2018-07-12T12:49:34.133Z,23.70
2018-07-12T12:52:03.185Z,24.70
2018-07-12T12:54:32.203Z,25.00
2018-07-12T12:57:01.198Z,23.90
2018-07-12T12:59:31.109Z,23.10
2018-07-12T13:02:00.122Z,22.50
2018-07-12T13:04:29.404Z,24.10
2018-07-12T13:06:58.544Z,25.10
2018-07-12T13:09:27.630Z,25.30
2018-07-12T13:11:56.767Z,25.70
2018-07-12T13:14:25.784Z,25.80
2018-07-12T13:16:54.754Z,24.90
2018-07-12T13:19:23.798Z,25.70
2018-07-12T13:21:52.882Z,26.10
2018-07-12T13:24:21.882Z,26.50
2018-07-12T13:26:51.237Z,26.70
2018-07-12T13:29:21.266Z,26.80
2018-07-12T13:31:50.816Z,27.00
2018-07-12T13:34:20.082Z,26.40
2018-07-12T13:36:49.477Z,25.90
2018-07-12T13:39:18.614Z,25.30
2018-07-12T13:41:47.645Z,24.20
2018-07-12T13:44:21.581Z,23.60
2018-07-12T13:46:51.754Z,23.70
2018-07-12T13:49:20.791Z,23.80
2018-07-12T13:51:50.870Z,23.80
2018-07-12T13:54:20.474Z,23.60
2018-07-12T13:56:50.155Z,23.50
2018-07-12T13:59:19.267Z,23.40
2018-07-12T14:01:48.265Z,23.00
2018-07-12T14:04:18.190Z,22.80
2018-07-12T14:06:47.200Z,22.70
2018-07-12T14:09:16.518Z,23.00
2018-07-12T14:11:45.739Z,23.30
2018-07-12T14:14:16.399Z,23.20
2018-07-12T14:16:45.598Z,23.20
2018-07-12T14:19:14.724Z,23.20
2018-07-12T14:21:43.845Z,23.00
2018-07-12T14:24:12.881Z,23.30
2018-07-12T14:26:42.862Z,23.20
2018-07-12T14:29:11.889Z,23.20
2018-07-12T14:31:40.995Z,23.40
2018-07-12T14:34:10.037Z,23.40
2018-07-12T14:36:39.514Z,23.50
2018-07-12T14:39:09.691Z,23.20
2018-07-12T14:41:38.771Z,23.40
2018-07-12T14:44:07.805Z,23.40
2018-07-12T14:46:36.851Z,23.30
2018-07-12T14:49:05.943Z,23.50
2018-07-12T14:51:35.035Z,23.80
2018-07-12T14:54:04.133Z,24.00
2018-07-12T14:56:33.189Z,24.10
2018-07-12T14:59:02.302Z,24.00
2018-07-12T15:01:31.649Z,24.00
2018-07-12T15:04:00.701Z,24.20
2018-07-12T15:06:29.749Z,24.20
2018-07-12T15:08:59.039Z,24.20
2018-07-12T15:11:28.034Z,24.10
2018-07-12T15:13:57.881Z,24.20
2018-07-12T15:16:27.046Z,23.70
2018-07-12T15:18:56.170Z,23.50
2018-07-12T15:21:25.423Z,23.30
2018-07-12T15:23:54.443Z,23.50
2018-07-12T15:26:24.591Z,23.60
2018-07-12T15:28:53.526Z,24.00
2018-07-12T15:31:22.758Z,23.90
2018-07-12T15:33:52.074Z,24.20
2018-07-12T15:36:21.421Z,24.20
2018-07-12T15:38:51.894Z,24.20
2018-07-12T15:41:21.246Z,24.10
2018-07-12T15:43:51.275Z,24.20
2018-07-12T15:46:27.005Z,24.10
2018-07-12T15:48:56.655Z,24.50
2018-07-12T15:51:25.924Z,24.60
2018-07-12T15:53:56.980Z,24.50
2018-07-12T15:56:28.856Z,24.20
2018-07-12T15:58:57.940Z,23.60
2018-07-12T16:01:27.161Z,23.60
2018-07-12T16:03:56.652Z,23.90
2018-07-12T16:06:26.345Z,24.20
2018-07-12T16:08:55.529Z,24.20
2018-07-12T16:11:26.362Z,24.40
2018-07-12T16:13:55.504Z,24.30
2018-07-12T16:16:24.790Z,23.80
2018-07-12T16:18:59.633Z,23.60
2018-07-12T16:21:29.239Z,23.90
2018-07-12T16:24:00.407Z,24.10
2018-07-12T16:26:29.588Z,24.10
2018-07-12T16:28:58.977Z,23.60
2018-07-12T16:31:28.042Z,23.50
2018-07-12T16:34:00.540Z,23.60
2018-07-12T16:36:29.965Z,23.80
2018-07-12T16:39:00.420Z,24.20
2018-07-12T16:41:29.502Z,24.10
2018-07-12T16:43:58.522Z,24.30
2018-07-12T16:46:27.785Z,24.60
2018-07-12T16:48:56.828Z,24.70
2018-07-12T16:51:25.879Z,25.00
2018-07-12T16:53:54.913Z,24.90
2018-07-12T16:56:24.811Z,25.20
2018-07-12T16:58:53.802Z,25.50
2018-07-12T17:01:22.892Z,25.60
2018-07-12T17:03:52.893Z,25.00
2018-07-12T17:06:22.483Z,25.20
2018-07-12T17:08:51.625Z,25.30
2018-07-12T17:11:20.872Z,25.40
2018-07-12T17:13:51.092Z,24.70
2018-07-12T17:16:20.103Z,24.40
2018-07-12T17:18:50.430Z,24.50
2018-07-12T17:21:19.767Z,24.40
2018-07-12T17:23:49.011Z,24.30
2018-07-12T17:26:17.969Z,24.30
2018-07-12T17:28:46.990Z,23.90
2018-07-12T17:31:16.196Z,23.70
2018-07-12T17:33:45.608Z,23.60
2018-07-12T17:36:14.850Z,23.40
2018-07-12T17:38:43.884Z,23.50
2018-07-12T17:41:13.011Z,23.30
2018-07-12T17:43:42.458Z,23.10
2018-07-12T17:46:11.535Z,22.90
2018-07-12T17:48:40.548Z,22.70
2018-07-12T17:51:09.566Z,22.60
2018-07-12T17:53:39.698Z,22.40
2018-07-12T17:56:08.917Z,22.40
2018-07-12T17:58:37.970Z,22.50
2018-07-12T18:01:07.137Z,22.30
2018-07-12T18:03:36.357Z,22.20
2018-07-12T18:06:05.830Z,22.20
2018-07-12T18:08:34.965Z,22.10
2018-07-12T18:11:03.950Z,22.20
2018-07-12T18:13:33.382Z,22.10
2018-07-12T18:16:03.701Z,21.90
2018-07-12T18:18:32.798Z,21.90
2018-07-12T18:21:02.016Z,21.80
2018-07-12T18:23:31.098Z,21.80
2018-07-12T18:26:00.478Z,21.70
2018-07-12T18:28:29.662Z,21.60
2018-07-12T18:30:58.666Z,21.50
2018-07-12T18:33:27.753Z,21.40
2018-07-12T18:35:56.877Z,21.50
2018-07-12T18:38:26.225Z,21.40
2018-07-12T18:40:55.238Z,21.50
2018-07-12T18:43:24.243Z,21.40
2018-07-12T18:45:54.185Z,21.30
2018-07-12T18:48:23.316Z,21.10
2018-07-12T18:50:53.194Z,21.00
2018-07-12T18:53:22.203Z,21.10
2018-07-12T18:55:51.526Z,21.00
2018-07-12T18:58:20.536Z,20.80
2018-07-12T19:00:50.645Z,20.80
2018-07-12T19:03:20.490Z,20.70
2018-07-12T19:05:50.622Z,20.70
2018-07-12T19:08:19.681Z,20.70
2018-07-12T19:10:48.729Z,20.70
2018-07-12T19:13:17.925Z,20.50
2018-07-12T19:15:47.038Z,20.40
2018-07-12T19:18:16.221Z,20.30
2018-07-12T19:20:46.361Z,20.30
2018-07-12T19:23:15.381Z,20.20
2018-07-12T19:25:44.386Z,20.10
2018-07-12T19:28:13.522Z,20.20
2018-07-12T19:30:42.511Z,20.20
2018-07-12T19:33:11.687Z,20.10
2018-07-12T19:35:40.678Z,20.10
2018-07-12T19:38:09.674Z,20.00
2018-07-12T19:40:38.749Z,20.10
2018-07-12T19:43:07.753Z,20.00
2018-07-12T19:45:36.790Z,20.00
2018-07-12T19:48:05.822Z,20.00
2018-07-12T19:50:34.814Z,19.90
2018-07-12T19:53:03.833Z,19.70
2018-07-12T19:55:33.122Z,19.70
2018-07-12T19:58:02.258Z,19.70
2018-07-12T20:00:31.310Z,19.60
2018-07-12T20:03:00.394Z,19.60
2018-07-12T20:05:29.530Z,19.60
2018-07-12T20:07:58.546Z,19.50
2018-07-12T20:10:27.568Z,19.50
2018-07-12T20:12:56.714Z,19.40
2018-07-12T20:15:25.810Z,19.40
2018-07-12T20:17:54.833Z,19.30
2018-07-12T20:20:23.866Z,19.30
2018-07-12T20:22:53.018Z,19.30
2018-07-12T20:25:22.049Z,19.30
2018-07-12T20:27:51.250Z,19.50
2018-07-12T20:30:20.321Z,19.50
2018-07-12T20:32:50.802Z,19.50
2018-07-12T20:35:19.837Z,19.40
2018-07-12T20:37:48.863Z,19.40
2018-07-12T20:40:17.874Z,19.40
2018-07-12T20:42:46.865Z,19.40
2018-07-12T20:45:15.950Z,19.30
2018-07-12T20:47:45.094Z,19.20
2018-07-12T20:50:14.151Z,19.30
2018-07-12T20:52:43.297Z,19.20
2018-07-12T20:55:12.309Z,19.30
2018-07-12T20:57:41.390Z,19.30
2018-07-12T21:00:10.413Z,19.30
2018-07-12T21:02:39.428Z,19.20
2018-07-12T21:05:08.527Z,19.20
2018-07-12T21:07:37.559Z,19.30
2018-07-12T21:10:06.781Z,19.70
2018-07-12T21:12:35.810Z,20.00
2018-07-12T21:15:04.855Z,20.00
2018-07-12T21:17:33.862Z,19.80
2018-07-12T21:20:02.873Z,19.60
2018-07-12T21:22:31.871Z,19.50
2018-07-12T21:25:00.874Z,19.30
2018-07-12T21:27:29.870Z,19.10
2018-07-12T21:29:58.870Z,18.90
2018-07-12T21:32:27.892Z,18.90
2018-07-12T21:34:56.912Z,18.90
2018-07-12T21:37:25.934Z,18.80
2018-07-12T21:39:54.942Z,18.70
2018-07-12T21:42:23.947Z,18.70
2018-07-12T21:44:52.938Z,18.60
2018-07-12T21:47:21.945Z,18.60
2018-07-12T21:49:51.034Z,18.50
2018-07-12T21:52:20.211Z,18.50
2018-07-12T21:54:50.101Z,18.40
2018-07-12T21:57:19.090Z,18.50
2018-07-12T21:59:48.106Z,18.50
2018-07-12T22:02:17.281Z,18.40
2018-07-12T22:04:46.309Z,18.50
2018-07-12T22:08:09.634Z,18.50
2018-07-12T22:10:38.678Z,18.50
2018-07-12T22:13:07.653Z,18.60
2018-07-12T22:15:36.769Z,18.60
2018-07-12T22:18:05.811Z,18.50
2018-07-12T22:20:34.858Z,18.50
2018-07-12T22:23:03.917Z,18.40
2018-07-12T22:25:33.229Z,18.20
2018-07-12T22:28:02.226Z,18.20
2018-07-12T22:30:31.564Z,18.30
2018-07-12T22:33:01.584Z,18.30
2018-07-12T22:35:30.627Z,18.30
2018-07-12T22:38:01.653Z,18.40
2018-07-12T22:40:30.965Z,18.40
2018-07-12T22:42:59.991Z,18.30
2018-07-12T22:45:28.987Z,18.30
2018-07-12T22:47:58.021Z,18.30
2018-07-12T22:50:27.021Z,18.30
2018-07-12T22:52:56.030Z,18.30
2018-07-12T22:55:25.033Z,18.30
2018-07-12T22:57:54.038Z,18.40
2018-07-12T23:00:23.048Z,18.50
2018-07-12T23:02:52.046Z,18.40
2018-07-12T23:05:21.033Z,18.30
2018-07-12T23:07:50.025Z,18.20
2018-07-12T23:10:19.143Z,18.30
2018-07-12T23:12:48.134Z,18.80
2018-07-12T23:15:17.137Z,18.90
2018-07-12T23:17:46.253Z,18.90
2018-07-12T23:20:15.254Z,18.80
2018-07-12T23:22:44.379Z,18.40
2018-07-12T23:25:14.185Z,18.20
2018-07-12T23:27:43.198Z,18.00
2018-07-12T23:30:12.203Z,17.80
2018-07-12T23:32:41.190Z,17.90
2018-07-12T23:35:10.179Z,17.60
2018-07-12T23:37:39.162Z,17.50
2018-07-12T23:40:08.141Z,17.40
2018-07-12T23:42:37.155Z,17.30
2018-07-12T23:45:06.158Z,17.20
2018-07-12T23:47:35.175Z,17.10
2018-07-12T23:50:04.152Z,17.10
2018-07-12T23:52:33.138Z,17.00
2018-07-12T23:55:02.121Z,17.10
2018-07-12T23:57:31.126Z,17.10
